Florence Regional Airport
KFLO : now visible

Airfield :











YOU CAN JOIN US ON...

 
LOGIN :

Register | Disclaimer

   EN    FR    IT 

 









Legend :    VFR   Marginal VFR   IFR   Intensive IFR   Very Intensive IFR
Visi :
Ceiling :
>= 8 km
>= 3000ft
5 to 8 km
1000 to 3000 ft
1500m to 5 km
500 to 1000 ft
800 to 1500m
200 to 500 ft
< 800m
< 200 ft
Symbols :   Thunderstorms  Fog  Heavy snow  Heavy precipitations  Wind > 20 kt






- Airport Elevation : 146 ft
- IATA code : FLO


KFLO - Florence Regional

CURRENT METAR :
  • 220112Z 01010KT 5SM -FZRA BR BKN009 BKN014 OVC019 M01/M03 A3034 RMK AO2 P0001 I1001 T10111033

EXPIRED METARs :
  • 220053Z 03009KT 5SM -FZRA OVC015 M01/M04 A3034 RMK AO2 SLP273 P0003 I1004 T10111039
  • 220019Z 01012KT 5SM -FZRA OVC010 M01/M04 A3035 RMK AO2 P0002 I1001 T10111039
  • 220001Z 03006KT 5SM -FZRA BKN008 OVC015 M01/M03 A3034 RMK AO2 CIG 007V013 P0001 I1000 T10061033
  • 212353Z 03007KT 5SM -FZRA BR OVC015 M01/M03 A3033 RMK AO2 SLP272 P0002 60006 I1004 I6008 T10111033 10011 21011 53010
  • 212343Z 03010KT 5SM -FZRA FEW008 OVC015 M01/M04 A3033 RMK AO2 P0002 I1003 T10111039
  • 212253Z 04012G17KT 6SM -FZRA BKN012 OVC026 M01/M04 A3032 RMK AO2 SLP267 P0003 I1003 T10111039 $
  • 212236Z 02010KT 5SM -FZRA BKN012 OVC027 M01/M03 A3032 RMK AO2 P0003 I1002 T10061033 $

TAF KFLO
Valid from the 22 at 00:00 until the 23 at 00:00 UTC


212327Z 2200/2224 02011G18KT 5SM -FZRA OVC010
TEMPO 2202/2204 2SM -SNPL OVC008
FM220400 02011KT 1 1/2SM -SNPL OVC008
FM220700 01010KT P6SM OVC009
FM221000 01010KT P6SM BKN010
FM221500 36007KT P6SM FEW250
KZJX FIR / North America



MET'MAP, your aeronautical weather chart ! - Copyright ORBIFLY December 2007 - Disclaimer

ORBIFLY MET'MAP TEAM :

Programming & Development : Alexandra Zaïnal
Concept & original design : Baudouin d'Aumeries
Assistance for programming : Marc-Olivier Méhu
Technical & hardware support : Manuel Goepfert

Contact : metmap@orbifly.com




SOURCES & CREDITS :

   NOAA       Earth
Advisory